Time;durP1;ratioP1;P1;durP2;ratioP2;P2;SDS_P1;SDS_P2;PMS_P1;PMS_P2;Temp;Humidity;BMP_temperature;BMP_pressure;BME280_temperature;BME280_humidity;BME280_pressure;Samples;Min_cycle;Max_cycle;Signal;HPM_P1;HPM_P2
2023/01/19 00:00:40;;;;;;;7.93;5.07;;;14.00;46.90;;;;;;5051612;28;20558;-77
2023/01/19 00:03:14;;;;;;;7.03;5.50;;;14.00;46.90;;;;;;5049946;28;20500;-77
2023/01/19 00:05:43;;;;;;;8.80;5.10;;;14.00;46.80;;;;;;5054360;28;20532;-76
2023/01/19 00:08:14;;;;;;;7.23;5.30;;;14.00;46.80;;;;;;5049717;28;20462;-76
2023/01/19 00:10:42;;;;;;;5.50;4.80;;;14.00;46.80;;;;;;5049449;28;20461;-78
2023/01/19 00:13:10;;;;;;;6.03;5.43;;;14.00;46.90;;;;;;5044396;28;20478;-78
2023/01/19 00:15:39;;;;;;;8.03;5.57;;;14.00;47.00;;;;;;5059247;28;20451;-79
2023/01/19 00:18:07;;;;;;;6.30;5.47;;;14.00;47.00;;;;;;5054261;28;20450;-79
2023/01/19 00:20:39;;;;;;;6.90;5.37;;;14.00;47.00;;;;;;5053980;28;20546;-79
2023/01/19 00:23:07;;;;;;;6.80;5.40;;;14.00;47.00;;;;;;5058277;28;20473;-77
2023/01/19 00:25:42;;;;;;;6.20;5.07;;;14.00;47.10;;;;;;5054487;28;20462;-77
2023/01/19 00:28:10;;;;;;;6.43;5.20;;;14.00;47.00;;;;;;5055770;28;20449;-79
2023/01/19 00:30:38;;;;;;;7.93;4.77;;;14.00;47.10;;;;;;5052517;28;20455;-78
2023/01/19 00:33:06;;;;;;;7.90;5.20;;;14.00;47.10;;;;;;5052451;28;20477;-78
2023/01/19 00:35:35;;;;;;;7.43;5.17;;;14.00;47.10;;;;;;5059892;28;20453;-78
2023/01/19 00:38:04;;;;;;;6.20;5.17;;;14.00;47.20;;;;;;5053350;28;20448;-79
2023/01/19 00:40:33;;;;;;;6.57;5.30;;;14.00;47.20;;;;;;5052555;28;20456;-77
2023/01/19 00:43:00;;;;;;;6.77;5.27;;;14.00;47.20;;;;;;5057957;28;20472;-76
2023/01/19 00:45:28;;;;;;;9.40;5.40;;;14.00;47.40;;;;;;5063185;28;20498;-79
2023/01/19 00:47:57;;;;;;;6.33;5.67;;;14.00;47.30;;;;;;5051223;28;20553;-78
2023/01/19 00:50:25;;;;;;;10.97;5.73;;;14.00;47.40;;;;;;5055549;28;20454;-77
2023/01/19 00:52:53;;;;;;;9.70;5.77;;;14.00;47.40;;;;;;5051282;28;20473;-78
2023/01/19 00:55:23;;;;;;;9.30;5.43;;;14.00;47.40;;;;;;5062812;28;20468;-78
2023/01/19 00:57:51;;;;;;;12.20;6.10;;;14.00;47.50;;;;;;5051809;28;20458;-78
2023/01/19 01:00:21;;;;;;;8.07;4.97;;;14.00;47.60;;;;;;5057692;28;20458;-76
2023/01/19 01:02:51;;;;;;;7.20;5.87;;;14.00;47.50;;;;;;5047853;28;20520;-77
2023/01/19 01:05:19;;;;;;;7.67;5.67;;;14.00;47.50;;;;;;5050072;28;20589;-78
2023/01/19 01:07:48;;;;;;;7.47;5.93;;;14.00;47.60;;;;;;5044742;28;20451;-76
2023/01/19 01:10:17;;;;;;;7.10;5.63;;;14.00;47.60;;;;;;5057391;28;20958;-78
2023/01/19 01:12:46;;;;;;;11.03;6.10;;;14.00;47.60;;;;;;5060297;28;20473;-78
2023/01/19 01:15:34;;;;;;;8.07;6.07;;;14.00;47.60;;;;;;5057447;28;20458;-77
2023/01/19 01:18:02;;;;;;;7.30;5.60;;;14.00;47.70;;;;;;5054872;28;20461;-77
2023/01/19 01:20:32;;;;;;;9.73;5.63;;;14.00;47.80;;;;;;5058351;28;20447;-77
2023/01/19 01:23:00;;;;;;;8.77;5.73;;;14.00;47.60;;;;;;5058970;28;20473;-76
2023/01/19 01:25:29;;;;;;;8.93;6.00;;;14.00;47.70;;;;;;5064349;28;20469;-76
2023/01/19 01:28:01;;;;;;;6.53;5.70;;;14.00;47.80;;;;;;5058582;28;20462;-78
2023/01/19 01:30:29;;;;;;;9.40;6.23;;;14.00;47.80;;;;;;5057172;28;20462;-79
2023/01/19 01:32:57;;;;;;;10.60;5.90;;;14.00;47.80;;;;;;5060227;28;20474;-79
2023/01/19 01:35:26;;;;;;;7.60;5.40;;;14.00;47.80;;;;;;5054499;28;20462;-78
2023/01/19 01:37:57;;;;;;;7.27;5.57;;;14.00;47.80;;;;;;5057858;28;20458;-78
2023/01/19 01:40:25;;;;;;;7.00;5.40;;;14.00;47.90;;;;;;5056230;28;20482;-78
2023/01/19 01:42:53;;;;;;;5.93;5.30;;;14.00;47.80;;;;;;5056474;28;20477;-79
2023/01/19 01:45:31;;;;;;;8.23;5.93;;;14.00;48.00;;;;;;5059559;28;20450;-77
2023/01/19 01:48:02;;;;;;;6.73;5.53;;;14.00;48.00;;;;;;5047954;28;20478;-79
2023/01/19 01:50:30;;;;;;;6.60;5.90;;;14.00;48.10;;;;;;5056307;28;20481;-79
2023/01/19 01:52:59;;;;;;;7.83;5.93;;;14.00;48.00;;;;;;5063968;28;20466;-78
2023/01/19 01:55:35;;;;;;;8.53;5.50;;;14.00;48.10;;;;;;5056304;28;20451;-78
2023/01/19 01:58:03;;;;;;;7.10;5.57;;;14.00;48.00;;;;;;5051679;28;20462;-80
2023/01/19 02:02:49;;;;;;;7.40;5.63;;;14.00;48.00;;;;;;5053057;28;20470;-78
2023/01/19 02:03:21;;;;;;;8.20;5.73;;;14.00;48.20;;;;;;5050888;28;20453;-77
2023/01/19 02:05:49;;;;;;;7.17;5.60;;;14.00;48.10;;;;;;5038517;28;20498;-79
2023/01/19 02:13:50;;;;;;;9.43;5.93;;;14.00;48.20;;;;;;5058951;28;20449;-77
2023/01/19 02:16:19;;;;;;;6.63;5.40;;;14.00;48.40;;;;;;5058654;28;20443;-77
2023/01/19 02:18:47;;;;;;;7.17;5.40;;;14.00;48.40;;;;;;5063319;28;20443;-77
2023/01/19 02:21:18;;;;;;;10.50;7.10;;;14.00;48.30;;;;;;5051428;28;20450;-77
2023/01/19 02:23:49;;;;;;;12.40;8.37;;;14.00;48.40;;;;;;5056150;28;20453;-77
2023/01/19 02:26:18;;;;;;;9.63;7.50;;;14.00;48.40;;;;;;5056420;28;20474;-77
2023/01/19 02:28:49;;;;;;;10.00;7.73;;;14.00;48.50;;;;;;5054324;28;20453;-79
2023/01/19 02:31:17;;;;;;;11.90;8.50;;;14.00;48.50;;;;;;5055348;28;20463;-78
2023/01/19 02:33:45;;;;;;;9.33;7.50;;;14.00;48.60;;;;;;5053586;28;20453;-77
2023/01/19 02:36:14;;;;;;;9.57;7.90;;;14.00;48.60;;;;;;5054233;28;20451;-77
2023/01/19 02:38:42;;;;;;;11.50;7.33;;;14.00;48.60;;;;;;5045179;28;20452;-78
2023/01/19 02:41:13;;;;;;;10.63;7.20;;;14.00;48.60;;;;;;5062966;28;20445;-78
2023/01/19 02:43:41;;;;;;;11.60;8.20;;;14.00;48.70;;;;;;5067486;28;20451;-78
2023/01/19 02:46:09;;;;;;;9.40;6.90;;;14.00;48.60;;;;;;5052342;28;20466;-77
2023/01/19 02:48:38;;;;;;;11.17;7.60;;;14.00;48.60;;;;;;5058549;28;20552;-78
2023/01/19 02:51:11;;;;;;;10.77;7.80;;;14.00;48.60;;;;;;5057932;28;20450;-78
2023/01/19 02:54:12;;;;;;;10.57;7.30;;;14.00;48.70;;;;;;5061989;28;20447;-79
2023/01/19 02:56:52;;;;;;;10.90;7.73;;;14.00;48.60;;;;;;5054687;28;20442;-78
2023/01/19 02:59:27;;;;;;;9.80;7.47;;;14.00;48.70;;;;;;5058451;28;20441;-78
2023/01/19 03:02:04;;;;;;;9.90;6.70;;;14.00;48.80;;;;;;5051008;28;20468;-78
2023/01/19 03:04:37;;;;;;;9.77;6.90;;;14.00;48.90;;;;;;5056053;28;20465;-77
2023/01/19 03:07:08;;;;;;;11.00;7.60;;;14.00;48.90;;;;;;5058355;28;20473;-78
2023/01/19 03:09:40;;;;;;;9.10;7.10;;;14.00;48.80;;;;;;5061097;28;20445;-77
2023/01/19 03:12:12;;;;;;;9.10;6.70;;;14.00;48.90;;;;;;5056054;28;20469;-77
2023/01/19 03:14:41;;;;;;;9.37;7.23;;;14.00;48.80;;;;;;5063891;28;20454;-76
2023/01/19 03:17:09;;;;;;;10.17;6.93;;;14.00;48.90;;;;;;5052271;28;20451;-77
2023/01/19 03:19:39;;;;;;;8.00;6.53;;;14.00;48.90;;;;;;5051999;28;20447;-76
2023/01/19 03:22:09;;;;;;;9.00;6.40;;;14.00;49.00;;;;;;5062250;28;20462;-77
2023/01/19 03:24:38;;;;;;;8.33;6.37;;;14.00;49.00;;;;;;5062997;28;20447;-79
2023/01/19 03:27:10;;;;;;;10.53;6.10;;;14.00;49.10;;;;;;5064098;28;20496;-77
2023/01/19 03:29:37;;;;;;;8.27;6.80;;;14.00;49.00;;;;;;5059264;28;20457;-77
2023/01/19 03:32:07;;;;;;;6.60;5.80;;;14.00;49.10;;;;;;5057091;28;20490;-77
2023/01/19 03:34:35;;;;;;;8.43;6.27;;;14.00;49.20;;;;;;5057104;28;20458;-77
2023/01/19 03:37:03;;;;;;;8.07;6.60;;;14.00;49.10;;;;;;5059389;28;20461;-76
2023/01/19 03:39:31;;;;;;;6.90;6.17;;;14.00;49.10;;;;;;5059992;28;20451;-77
2023/01/19 03:42:02;;;;;;;8.83;6.63;;;14.00;49.30;;;;;;5059780;28;20481;-77
2023/01/19 03:44:31;;;;;;;7.30;5.70;;;14.00;49.20;;;;;;5062083;28;20443;-78
2023/01/19 03:47:00;;;;;;;7.50;6.40;;;14.00;49.20;;;;;;5052232;28;20481;-79
2023/01/19 03:49:28;;;;;;;6.33;5.30;;;14.00;49.20;;;;;;5057405;28;20442;-79
2023/01/19 03:51:57;;;;;;;6.17;5.57;;;14.00;49.20;;;;;;5072505;28;20461;-78
2023/01/19 03:54:25;;;;;;;7.03;5.70;;;13.90;49.30;;;;;;5047501;28;20462;-78
2023/01/19 03:56:53;;;;;;;7.50;5.70;;;13.90;49.20;;;;;;5057468;28;20452;-77
2023/01/19 03:59:21;;;;;;;6.67;5.90;;;13.90;49.20;;;;;;5057522;28;20461;-78
2023/01/19 04:01:51;;;;;;;9.60;5.60;;;14.00;49.40;;;;;;5045012;28;20488;-78
2023/01/19 04:04:19;;;;;;;5.43;4.90;;;14.00;49.40;;;;;;5049608;28;20455;-78
2023/01/19 04:06:46;;;;;;;8.07;5.37;;;14.00;49.40;;;;;;5060005;28;20446;-77
2023/01/19 04:09:14;;;;;;;7.87;5.87;;;14.00;49.50;;;;;;5045741;28;20439;-77
2023/01/19 04:11:42;;;;;;;8.80;5.67;;;14.00;49.40;;;;;;5058639;28;20478;-79
2023/01/19 04:14:09;;;;;;;8.10;6.23;;;14.00;49.40;;;;;;5066453;28;20466;-78
2023/01/19 04:16:37;;;;;;;7.30;5.40;;;13.90;49.40;;;;;;5066394;28;20454;-77
2023/01/19 04:19:07;;;;;;;7.17;6.17;;;13.90;49.30;;;;;;5053860;28;20462;-77
2023/01/19 04:21:35;;;;;;;6.87;5.60;;;14.00;49.40;;;;;;5068011;28;20465;-78
2023/01/19 04:24:02;;;;;;;7.33;5.60;;;13.90;49.30;;;;;;5053882;28;20453;-78
2023/01/19 04:26:30;;;;;;;6.80;6.10;;;13.90;49.30;;;;;;5064495;28;20441;-78
2023/01/19 04:28:58;;;;;;;6.87;6.03;;;13.90;49.40;;;;;;5064611;28;20468;-78
2023/01/19 04:31:26;;;;;;;8.77;6.30;;;13.90;49.40;;;;;;5065368;28;20477;-77
2023/01/19 04:33:54;;;;;;;6.30;5.50;;;13.90;49.50;;;;;;5054070;28;20516;-78
2023/01/19 04:36:23;;;;;;;6.90;5.43;;;13.90;49.50;;;;;;5065757;28;20458;-77
2023/01/19 04:38:51;;;;;;;5.53;5.03;;;13.90;49.50;;;;;;5058465;28;20951;-78
2023/01/19 04:41:19;;;;;;;6.60;5.67;;;13.90;49.50;;;;;;5056815;28;20471;-76
2023/01/19 04:43:47;;;;;;;5.43;4.93;;;13.90;49.60;;;;;;5056508;28;20447;-77
2023/01/19 04:46:15;;;;;;;6.40;5.80;;;13.90;49.60;;;;;;5044484;28;20473;-78
2023/01/19 04:48:43;;;;;;;6.20;5.60;;;13.90;49.50;;;;;;5055276;28;20462;-77
2023/01/19 04:51:11;;;;;;;6.93;6.13;;;13.90;49.70;;;;;;5057560;28;20485;-78
2023/01/19 04:53:40;;;;;;;6.50;5.83;;;13.90;49.60;;;;;;5051647;28;20451;-77
2023/01/19 04:56:08;;;;;;;5.73;5.23;;;13.90;49.50;;;;;;5063407;28;20448;-78
2023/01/19 04:58:36;;;;;;;6.63;5.73;;;13.90;49.60;;;;;;5057824;28;20434;-77
2023/01/19 05:01:07;;;;;;;5.90;5.10;;;13.90;49.60;;;;;;5046513;28;20446;-78
2023/01/19 05:03:36;;;;;;;7.93;5.87;;;13.90;50.30;;;;;;5052179;28;20444;-79
2023/01/19 05:06:03;;;;;;;5.57;5.07;;;13.90;49.70;;;;;;5066033;28;20441;-78
2023/01/19 05:08:32;;;;;;;6.30;5.60;;;13.90;49.70;;;;;;5062589;28;20476;-79
2023/01/19 05:11:01;;;;;;;6.70;5.70;;;13.90;49.90;;;;;;5046546;28;20446;-79
2023/01/19 05:13:29;;;;;;;7.13;5.83;;;13.80;49.90;;;;;;5055904;28;20438;-77
2023/01/19 05:15:56;;;;;;;5.57;5.07;;;13.80;49.80;;;;;;5059527;28;20437;-77
2023/01/19 05:18:25;;;;;;;5.93;5.43;;;13.80;49.90;;;;;;5051134;28;20446;-76
2023/01/19 05:20:52;;;;;;;6.10;5.47;;;13.80;50.00;;;;;;5061452;28;20427;-76
2023/01/19 05:23:20;;;;;;;5.87;5.27;;;13.80;50.00;;;;;;5052158;28;20454;-77
2023/01/19 05:25:48;;;;;;;6.53;5.37;;;13.80;50.20;;;;;;5058952;28;20446;-76
2023/01/19 05:28:17;;;;;;;6.00;5.40;;;13.80;50.00;;;;;;5060585;28;21007;-76
2023/01/19 05:30:46;;;;;;;6.00;5.40;;;13.80;50.20;;;;;;5060448;28;20509;-77
2023/01/19 05:33:13;;;;;;;6.40;5.67;;;13.80;50.20;;;;;;5052211;28;20446;-77
2023/01/19 05:35:42;;;;;;;6.00;5.40;;;13.80;50.20;;;;;;5052545;28;20454;-77
2023/01/19 05:38:09;;;;;;;5.97;5.37;;;13.80;50.20;;;;;;5062853;28;20442;-75
2023/01/19 05:40:37;;;;;;;6.43;5.40;;;13.80;50.20;;;;;;5051181;28;20458;-77
2023/01/19 05:43:05;;;;;;;6.30;5.27;;;13.80;50.30;;;;;;5045683;28;20474;-76
2023/01/19 05:45:34;;;;;;;5.93;5.40;;;13.80;50.20;;;;;;5060239;28;20446;-76
2023/01/19 05:48:02;;;;;;;5.53;5.03;;;13.80;50.30;;;;;;5057642;28;20478;-77
2023/01/19 05:50:30;;;;;;;6.30;5.70;;;13.80;50.30;;;;;;5041448;28;20531;-76
2023/01/19 05:52:58;;;;;;;9.00;6.03;;;13.80;50.40;;;;;;5049573;28;20475;-77
2023/01/19 05:55:27;;;;;;;6.03;5.43;;;13.80;50.50;;;;;;5060650;28;20435;-76
2023/01/19 05:57:54;;;;;;;5.67;5.13;;;13.80;50.40;;;;;;5036753;28;20436;-77
2023/01/19 06:00:23;;;;;;;5.50;4.97;;;13.80;50.50;;;;;;5059671;28;20441;-77
2023/01/19 06:02:52;;;;;;;5.47;4.87;;;13.80;50.60;;;;;;5053273;28;20481;-77
2023/01/19 06:05:21;;;;;;;6.23;5.27;;;13.80;50.60;;;;;;5045683;28;20479;-77
2023/01/19 06:07:48;;;;;;;7.17;5.80;;;13.80;50.70;;;;;;5043986;28;20450;-77
2023/01/19 06:10:17;;;;;;;6.50;5.70;;;13.70;50.70;;;;;;5040762;28;20460;-77
2023/01/19 06:12:45;;;;;;;6.70;5.03;;;13.80;50.80;;;;;;5042068;28;20465;-77
2023/01/19 06:15:13;;;;;;;5.20;4.67;;;13.80;50.70;;;;;;5045900;28;20450;-78
2023/01/19 06:17:41;;;;;;;8.43;5.53;;;13.80;50.70;;;;;;5050366;28;20461;-77
2023/01/19 06:20:13;;;;;;;7.67;5.07;;;13.80;50.70;;;;;;5052673;28;20457;-77
2023/01/19 06:22:41;;;;;;;6.60;5.63;;;13.80;50.70;;;;;;5052537;28;20486;-77
2023/01/19 06:25:10;;;;;;;5.93;5.33;;;13.80;50.90;;;;;;5047778;28;20460;-77
2023/01/19 06:27:39;;;;;;;6.80;5.53;;;13.80;50.90;;;;;;5048080;28;20450;-77
2023/01/19 06:30:08;;;;;;;5.70;5.10;;;13.80;50.90;;;;;;5054431;28;20470;-77
2023/01/19 06:32:37;;;;;;;6.03;4.73;;;13.80;50.90;;;;;;5052837;28;20466;-76
2023/01/19 06:35:06;;;;;;;6.07;5.10;;;13.80;50.90;;;;;;5051713;28;20457;-77
2023/01/19 06:37:36;;;;;;;5.40;4.90;;;13.80;50.90;;;;;;5054681;28;20477;-76
2023/01/19 06:40:05;;;;;;;5.67;5.13;;;13.80;50.90;;;;;;5052772;28;20434;-76
2023/01/19 06:42:33;;;;;;;6.67;5.57;;;13.80;51.00;;;;;;5056454;28;20497;-77
2023/01/19 06:45:01;;;;;;;6.90;5.83;;;13.80;51.00;;;;;;5051457;28;20442;-77
2023/01/19 06:47:29;;;;;;;5.47;4.90;;;13.70;50.90;;;;;;5053745;28;20960;-76
2023/01/19 06:49:57;;;;;;;6.77;5.33;;;13.80;51.00;;;;;;5055402;28;20494;-77
2023/01/19 06:52:25;;;;;;;7.03;5.73;;;13.70;51.00;;;;;;5055426;28;20477;-77
2023/01/19 06:54:54;;;;;;;6.00;5.37;;;13.80;51.10;;;;;;5048755;28;20448;-77
2023/01/19 06:57:24;;;;;;;5.77;5.17;;;13.70;51.00;;;;;;5052852;28;20453;-77
2023/01/19 06:59:52;;;;;;;6.37;5.00;;;13.80;51.10;;;;;;5053673;28;20452;-77
2023/01/19 07:02:22;;;;;;;6.60;5.17;;;13.80;50.90;;;;;;5054093;28;20476;-77
2023/01/19 07:04:55;;;;;;;5.83;5.30;;;13.80;51.10;;;;;;5049659;28;20465;-78
2023/01/19 07:07:22;;;;;;;5.53;4.93;;;13.80;51.10;;;;;;5046411;28;20467;-75
2023/01/19 07:09:50;;;;;;;5.70;5.20;;;13.80;51.20;;;;;;5054093;28;20481;-77
2023/01/19 07:12:22;;;;;;;5.93;5.20;;;13.70;51.10;;;;;;5056113;28;20473;-78
2023/01/19 07:14:51;;;;;;;6.23;5.63;;;13.80;51.20;;;;;;5053311;28;20453;-77
2023/01/19 07:17:19;;;;;;;6.10;5.50;;;13.70;51.00;;;;;;5056183;28;20446;-77
2023/01/19 07:19:47;;;;;;;9.00;5.80;;;13.80;51.00;;;;;;5055932;28;20456;-77
2023/01/19 07:22:14;;;;;;;6.10;5.37;;;13.80;51.00;;;;;;5048777;28;20487;-77
2023/01/19 07:24:42;;;;;;;6.50;5.67;;;13.70;51.00;;;;;;5057784;28;20507;-77
2023/01/19 07:27:10;;;;;;;6.63;5.93;;;13.70;51.00;;;;;;5055510;28;20443;-77
2023/01/19 07:29:39;;;;;;;6.87;5.70;;;13.80;51.10;;;;;;5052505;28;20468;-78
2023/01/19 07:32:07;;;;;;;7.17;5.90;;;13.70;51.00;;;;;;5047484;28;20470;-77
2023/01/19 07:34:35;;;;;;;5.67;5.17;;;13.70;51.10;;;;;;5057080;28;20451;-78
2023/01/19 07:37:04;;;;;;;6.37;5.33;;;13.80;51.20;;;;;;5048193;28;20454;-78
2023/01/19 07:39:31;;;;;;;5.70;5.10;;;13.80;51.20;;;;;;5057457;28;20439;-77
2023/01/19 07:41:59;;;;;;;9.93;5.30;;;13.80;51.20;;;;;;5041921;28;20481;-77
2023/01/19 07:44:27;;;;;;;5.40;4.90;;;13.80;51.20;;;;;;5054205;28;20469;-79
2023/01/19 07:46:57;;;;;;;5.77;4.70;;;13.80;51.30;;;;;;5050602;28;20454;-77
2023/01/19 07:49:25;;;;;;;5.43;4.93;;;13.80;51.20;;;;;;5052157;28;20474;-77
2023/01/19 07:51:55;;;;;;;5.13;4.63;;;13.70;51.30;;;;;;5059836;28;20469;-77
2023/01/19 07:54:23;;;;;;;5.10;4.67;;;13.80;51.40;;;;;;5056119;28;21013;-78
2023/01/19 07:56:53;;;;;;;4.50;4.20;;;13.80;51.40;;;;;;5048285;28;20450;-77
2023/01/19 07:59:21;;;;;;;7.37;4.80;;;13.80;51.30;;;;;;5056073;28;20451;-78
2023/01/19 08:01:49;;;;;;;7.50;4.30;;;13.80;51.20;;;;;;5052380;28;20468;-77
2023/01/19 08:04:19;;;;;;;7.40;5.50;;;13.80;51.30;;;;;;5065827;28;20453;-78
2023/01/19 08:06:47;;;;;;;4.97;4.57;;;13.80;51.30;;;;;;5057591;28;20458;-77
2023/01/19 08:09:15;;;;;;;5.23;4.73;;;13.80;51.30;;;;;;5054964;28;20477;-78
2023/01/19 08:11:43;;;;;;;6.00;4.93;;;13.80;51.40;;;;;;5055025;28;20474;-77
2023/01/19 08:14:11;;;;;;;5.60;5.10;;;13.80;51.40;;;;;;5051314;28;20438;-77
2023/01/19 08:16:38;;;;;;;4.67;4.30;;;13.80;51.40;;;;;;5056122;28;20462;-77
2023/01/19 08:19:06;;;;;;;4.60;4.30;;;13.80;51.30;;;;;;5055517;28;20455;-77
2023/01/19 08:21:37;;;;;;;5.40;4.50;;;13.80;51.30;;;;;;5057468;28;20477;-77
2023/01/19 08:24:05;;;;;;;4.80;4.30;;;13.80;51.40;;;;;;5054477;28;20438;-77
2023/01/19 08:26:34;;;;;;;5.53;4.60;;;13.90;51.40;;;;;;5062348;28;20455;-78
2023/01/19 08:29:03;;;;;;;4.40;4.03;;;13.90;51.50;;;;;;5041687;28;20478;-77
2023/01/19 08:31:31;;;;;;;4.47;4.07;;;13.90;51.30;;;;;;5049660;28;20477;-78
2023/01/19 08:34:00;;;;;;;6.90;5.10;;;13.90;51.40;;;;;;5055941;28;20464;-77
2023/01/19 08:36:28;;;;;;;4.97;4.50;;;13.90;51.40;;;;;;5057113;28;20462;-76
2023/01/19 08:38:57;;;;;;;4.40;4.00;;;13.90;51.60;;;;;;5054227;28;20458;-79
2023/01/19 08:41:25;;;;;;;4.63;4.03;;;13.90;51.50;;;;;;5051371;28;20454;-76
2023/01/19 08:43:53;;;;;;;4.87;4.37;;;13.90;51.60;;;;;;5044313;28;20445;-77
2023/01/19 08:46:20;;;;;;;3.97;3.67;;;13.90;51.60;;;;;;5048303;28;20451;-77
2023/01/19 08:48:49;;;;;;;4.77;4.37;;;13.90;51.60;;;;;;5053297;28;20460;-75
2023/01/19 08:51:17;;;;;;;5.03;4.17;;;13.90;51.70;;;;;;5044513;28;20568;-76
2023/01/19 08:53:45;;;;;;;4.10;3.70;;;13.90;51.60;;;;;;5044571;28;20803;-77
2023/01/19 08:56:14;;;;;;;4.47;4.07;;;13.90;51.60;;;;;;5044064;28;20439;-77
2023/01/19 08:58:42;;;;;;;4.40;4.00;;;13.90;51.60;;;;;;5044697;28;20447;-77
2023/01/19 09:01:12;;;;;;;4.40;4.00;;;13.90;51.60;;;;;;5044350;28;20446;-77
2023/01/19 09:03:40;;;;;;;3.90;3.60;;;14.00;51.80;;;;;;5049555;28;20451;-77
2023/01/19 09:06:08;;;;;;;4.47;4.07;;;14.00;51.80;;;;;;5045015;28;20473;-76
2023/01/19 09:08:37;;;;;;;8.30;4.37;;;14.00;51.80;;;;;;5045051;28;20817;-77
2023/01/19 09:11:06;;;;;;;4.67;3.90;;;14.00;51.70;;;;;;5047977;28;20507;-77
2023/01/19 09:13:35;;;;;;;5.73;4.60;;;14.00;51.70;;;;;;5041733;28;20456;-78
2023/01/19 09:16:03;;;;;;;4.33;3.93;;;14.00;51.70;;;;;;5044401;28;20455;-77
2023/01/19 09:18:32;;;;;;;4.00;3.67;;;14.00;51.70;;;;;;5050238;28;20462;-77
2023/01/19 09:21:00;;;;;;;3.63;3.43;;;14.00;51.80;;;;;;5043425;28;20474;-78
2023/01/19 09:23:28;;;;;;;4.10;3.80;;;14.00;51.70;;;;;;5040232;28;20458;-78
2023/01/19 09:25:57;;;;;;;4.00;3.67;;;14.00;51.80;;;;;;5047665;28;20450;-79
2023/01/19 09:28:25;;;;;;;4.03;3.73;;;14.10;51.90;;;;;;5045501;28;20478;-77
2023/01/19 09:30:54;;;;;;;4.00;3.60;;;14.00;51.80;;;;;;5043647;28;20467;-79
2023/01/19 09:33:23;;;;;;;3.30;3.10;;;14.00;51.80;;;;;;5042532;28;20446;-78
2023/01/19 09:35:51;;;;;;;4.00;3.60;;;14.10;52.00;;;;;;5037600;28;20505;-78
2023/01/19 09:38:19;;;;;;;4.13;3.73;;;14.10;52.00;;;;;;5048044;28;20459;-78
2023/01/19 09:40:48;;;;;;;6.00;3.90;;;14.10;52.00;;;;;;5052033;28;20457;-78
2023/01/19 09:43:19;;;;;;;4.03;3.73;;;14.10;52.00;;;;;;5049689;28;20481;-78
2023/01/19 09:45:49;;;;;;;4.13;3.60;;;14.20;51.90;;;;;;5046943;28;20464;-78
2023/01/19 09:48:27;;;;;;;3.97;3.67;;;14.20;52.00;;;;;;5047685;28;20462;-78
2023/01/19 09:50:56;;;;;;;3.50;3.20;;;14.30;51.90;;;;;;5050958;28;20476;-78
2023/01/19 09:53:27;;;;;;;4.17;3.60;;;14.30;52.00;;;;;;5040689;28;20454;-77
2023/01/19 09:55:56;;;;;;;3.90;3.50;;;14.30;52.00;;;;;;5044299;28;20462;-78
2023/01/19 09:58:24;;;;;;;5.30;3.37;;;14.30;52.10;;;;;;5046709;28;20527;-78
2023/01/19 10:00:55;;;;;;;3.30;3.07;;;14.30;52.00;;;;;;5045574;28;20457;-77
2023/01/19 10:03:25;;;;;;;3.57;3.27;;;14.30;52.00;;;;;;5047488;28;20473;-78
2023/01/19 10:05:54;;;;;;;3.40;3.10;;;14.30;52.00;;;;;;5048929;28;20535;-78
2023/01/19 10:08:24;;;;;;;3.13;2.93;;;14.30;52.10;;;;;;5053986;28;20458;-78
2023/01/19 10:10:53;;;;;;;3.60;3.30;;;14.30;52.10;;;;;;5049042;28;20470;-78
2023/01/19 10:13:35;;;;;;;3.10;2.90;;;14.40;52.10;;;;;;5055741;28;20458;-78
2023/01/19 10:16:09;;;;;;;5.17;3.47;;;14.40;52.00;;;;;;5047553;28;20459;-77
2023/01/19 10:18:46;;;;;;;3.17;2.97;;;14.40;52.10;;;;;;5052888;28;20457;-78
2023/01/19 10:21:16;;;;;;;4.83;2.90;;;14.40;52.00;;;;;;5051648;28;20463;-78
2023/01/19 10:23:46;;;;;;;3.20;2.93;;;14.40;52.10;;;;;;5051833;28;20477;-78
2023/01/19 10:26:16;;;;;;;3.10;2.90;;;14.40;52.10;;;;;;5049860;28;20453;-78
2023/01/19 10:28:45;;;;;;;3.10;2.90;;;14.50;52.10;;;;;;5050707;28;20462;-75
2023/01/19 10:31:14;;;;;;;3.23;2.93;;;14.50;52.10;;;;;;5050128;28;20503;-78
2023/01/19 10:33:43;;;;;;;3.00;2.70;;;14.50;52.10;;;;;;5047489;28;20454;-78
2023/01/19 10:36:19;;;;;;;3.07;2.87;;;14.50;52.20;;;;;;5050733;28;20465;-78
2023/01/19 10:38:47;;;;;;;3.00;2.70;;;14.50;52.10;;;;;;5051293;28;20552;-77
2023/01/19 10:41:19;;;;;;;3.10;2.80;;;14.60;52.20;;;;;;5047910;28;20489;-78
2023/01/19 10:43:47;;;;;;;3.03;2.57;;;14.60;52.30;;;;;;5052176;28;20828;-78
2023/01/19 10:46:21;;;;;;;2.90;2.70;;;14.70;52.20;;;;;;5053236;28;20533;-78
2023/01/19 10:48:51;;;;;;;3.33;2.93;;;14.80;52.20;;;;;;5057501;28;20446;-78
2023/01/19 10:51:19;;;;;;;3.37;3.00;;;14.80;52.00;;;;;;5050776;28;20482;-78
2023/01/19 10:53:58;;;;;;;4.47;2.90;;;14.80;52.10;;;;;;5048533;28;20450;-78
2023/01/19 10:56:30;;;;;;;3.00;2.80;;;14.90;52.10;;;;;;5052186;28;20889;-79
2023/01/19 10:59:00;;;;;;;2.83;2.63;;;15.00;52.20;;;;;;5058547;28;20448;-78
2023/01/19 11:01:29;;;;;;;3.50;3.20;;;15.10;52.10;;;;;;5047641;28;20486;-79
2023/01/19 11:04:04;;;;;;;3.00;2.80;;;15.20;52.20;;;;;;5049623;28;20486;-76
2023/01/19 11:06:32;;;;;;;3.33;2.93;;;15.40;52.10;;;;;;5050256;28;20450;-79
2023/01/19 11:09:11;;;;;;;3.17;2.77;;;15.50;52.00;;;;;;5052046;28;20968;-80
2023/01/19 11:11:46;;;;;;;3.40;3.10;;;15.50;51.70;;;;;;5045440;28;20483;-78
2023/01/19 11:14:14;;;;;;;3.20;2.67;;;15.50;51.70;;;;;;5049672;28;20457;-79
2023/01/19 11:16:45;;;;;;;2.80;2.60;;;15.50;51.80;;;;;;5050010;28;20460;-78
2023/01/19 11:19:28;;;;;;;3.00;2.70;;;15.60;51.80;;;;;;5052018;28;20454;-79
2023/01/19 11:22:09;;;;;;;2.87;2.60;;;15.60;51.70;;;;;;5047977;28;20469;-77
2023/01/19 11:24:38;;;;;;;2.73;2.53;;;15.60;51.60;;;;;;5046170;28;20455;-77
2023/01/19 11:27:06;;;;;;;2.60;2.40;;;15.60;51.70;;;;;;5050309;28;20473;-78
2023/01/19 11:29:33;;;;;;;2.70;2.50;;;15.60;51.80;;;;;;5051969;28;20452;-77
2023/01/19 11:32:10;;;;;;;3.20;2.70;;;15.60;52.00;;;;;;5047622;28;20474;-78
2023/01/19 11:34:39;;;;;;;3.20;2.77;;;15.70;52.10;;;;;;5046850;28;20447;-77
2023/01/19 11:37:27;;;;;;;2.97;2.67;;;15.80;52.30;;;;;;5048268;28;20456;-76
2023/01/19 11:39:57;;;;;;;3.37;2.73;;;15.90;52.10;;;;;;5044809;28;20458;-77
2023/01/19 11:42:25;;;;;;;2.50;2.40;;;15.90;52.10;;;;;;5049143;28;20467;-77
2023/01/19 11:44:58;;;;;;;3.10;2.80;;;16.00;52.10;;;;;;5045209;28;20454;-77
2023/01/19 11:47:28;;;;;;;4.70;2.80;;;16.00;52.10;;;;;;5051439;28;20459;-76
2023/01/19 11:50:01;;;;;;;4.13;3.00;;;16.10;52.10;;;;;;5045707;28;20473;-77
2023/01/19 11:52:32;;;;;;;3.40;3.10;;;16.20;52.10;;;;;;5048863;28;20536;-77
2023/01/19 11:55:03;;;;;;;3.70;3.30;;;16.50;52.80;;;;;;5051776;28;20455;-77
2023/01/19 11:57:31;;;;;;;3.63;2.83;;;16.90;52.80;;;;;;5051929;28;20477;-77
2023/01/19 12:00:02;;;;;;;2.67;2.47;;;17.30;52.00;;;;;;5054646;28;20458;-77
2023/01/19 12:02:31;;;;;;;3.60;3.03;;;17.60;51.80;;;;;;5054765;28;20549;-77
2023/01/19 12:05:04;;;;;;;3.53;3.23;;;17.70;51.20;;;;;;5052685;28;20489;-77
2023/01/19 12:07:33;;;;;;;3.50;3.20;;;17.80;51.00;;;;;;5045996;28;20450;-77
2023/01/19 12:10:06;;;;;;;3.07;2.87;;;18.00;51.20;;;;;;5049189;28;20456;-75
2023/01/19 12:12:37;;;;;;;4.87;3.20;;;18.40;51.00;;;;;;5040792;28;20486;-75
2023/01/19 12:15:06;;;;;;;5.50;3.00;;;18.70;50.60;;;;;;5042490;28;20462;-76
2023/01/19 12:17:36;;;;;;;5.77;3.67;;;18.90;50.60;;;;;;5048073;28;20453;-77
2023/01/19 12:20:13;;;;;;;11.10;3.20;;;19.10;50.60;;;;;;5046115;28;20447;-76
2023/01/19 12:22:48;;;;;;;5.53;3.20;;;19.50;50.90;;;;;;5047798;28;20478;-77
2023/01/19 12:25:20;;;;;;;3.80;3.43;;;19.80;50.20;;;;;;5050485;28;20461;-76
2023/01/19 12:27:48;;;;;;;4.17;3.50;;;20.20;50.00;;;;;;5051389;28;20446;-77
2023/01/19 12:30:17;;;;;;;5.37;3.80;;;20.50;49.60;;;;;;5046583;28;20451;-76
2023/01/19 12:32:45;;;;;;;5.43;3.80;;;20.70;49.00;;;;;;5054322;28;20497;-77
2023/01/19 12:35:51;;;;;;;6.97;3.60;;;20.80;49.10;;;;;;5047642;28;20470;-78
2023/01/19 12:38:35;;;;;;;4.23;3.40;;;21.00;49.00;;;;;;5045922;28;20458;-78
2023/01/19 12:41:22;;;;;;;4.17;3.73;;;21.30;49.00;;;;;;5043657;28;20461;-77
2023/01/19 12:44:23;;;;;;;5.07;3.87;;;21.60;48.50;;;;;;5047486;28;20454;-77
2023/01/19 12:46:53;;;;;;;7.17;4.30;;;21.70;48.40;;;;;;5050551;28;20454;-77
2023/01/19 12:49:27;;;;;;;5.73;3.93;;;21.90;48.50;;;;;;5044579;28;20448;-76
2023/01/19 12:52:10;;;;;;;9.43;4.30;;;22.10;48.30;;;;;;5051373;28;20474;-78
2023/01/19 12:54:40;;;;;;;7.57;4.20;;;22.40;48.20;;;;;;5045804;28;20451;-78
2023/01/19 12:57:09;;;;;;;5.97;4.00;;;22.60;48.00;;;;;;5050049;28;20517;-76
2023/01/19 12:59:36;;;;;;;5.77;4.80;;;22.70;47.80;;;;;;5050241;28;20451;-76
2023/01/19 13:02:50;;;;;;;6.07;4.87;;;22.90;47.70;;;;;;5051856;28;20470;-77
2023/01/19 13:05:23;;;;;;;10.43;4.53;;;23.10;47.20;;;;;;5047850;28;20465;-76